Time;durP1;ratioP1;P1;durP2;ratioP2;P2;SDS_P1;SDS_P2;PMS_P1;PMS_P2;Temp;Humidity;BMP_temperature;BMP_pressure;BME280_temperature;BME280_humidity;BME280_pressure;Samples;Min_cycle;Max_cycle;Signal;HPM_P1;HPM_P2
2023/02/14 00:00:31;;;;;;;;;67.25;54.50;;;;;11.16;56.89;102765.19;2100390;27;46766;-62
2023/02/14 00:01:31;;;;;;;;;66.25;53.75;;;;;11.14;56.93;102768.72;2097121;28;46746;-61
2023/02/14 00:02:31;;;;;;;;;68.25;54.50;;;;;11.14;56.93;102766.06;2116838;27;46181;-61
2023/02/14 00:03:32;;;;;;;;;70.75;56.50;;;;;11.14;56.92;102764.31;2117219;27;46531;-62
2023/02/14 00:04:33;;;;;;;;;72.25;57.25;;;;;11.13;56.90;102764.28;2105215;27;46341;-62
2023/02/14 00:05:33;;;;;;;;;71.60;55.80;;;;;11.12;56.71;102767.81;2105370;27;46620;-61
2023/02/14 00:06:35;;;;;;;;;72.50;56.00;;;;;11.11;56.85;102771.38;2097976;27;46124;-61
2023/02/14 00:07:36;;;;;;;;;69.20;55.80;;;;;11.09;56.86;102771.34;2108826;27;46352;-61
2023/02/14 00:08:36;;;;;;;;;71.00;55.75;;;;;11.09;56.88;102766.03;2104987;27;46868;-63
2023/02/14 00:09:36;;;;;;;;;69.00;54.00;;;;;11.09;57.06;102771.34;2104872;28;46550;-61
2023/02/14 00:10:37;;;;;;;;;70.25;56.00;;;;;11.08;56.92;102772.22;2109110;27;46701;-61
2023/02/14 00:11:38;;;;;;;;;71.25;56.00;;;;;11.07;56.96;102769.56;2099460;27;46188;-61
2023/02/14 00:12:38;;;;;;;;;68.40;54.60;;;;;11.07;56.93;102772.22;2098474;27;46910;-62
2023/02/14 00:15:20;;;;;;;;;70.00;54.50;;;;;11.05;57.14;102764.25;2101555;27;46474;-61
2023/02/14 00:16:18;;;;;;;;;68.00;54.40;;;;;11.03;57.15;102765.97;2097762;27;46394;-61
2023/02/14 00:17:18;;;;;;;;;70.00;55.25;;;;;11.02;57.13;102768.63;2105024;27;46270;-61
2023/02/14 00:18:18;;;;;;;;;69.25;54.50;;;;;11.00;57.11;102765.06;2097572;27;46363;-61
2023/02/14 00:19:20;;;;;;;;;69.00;56.00;;;;;10.99;57.19;102768.59;2095900;27;45427;-63
2023/02/14 00:20:23;;;;;;;;;67.40;55.00;;;;;10.99;57.30;102763.28;2106463;27;46737;-62
2023/02/14 00:21:23;;;;;;;;;68.40;55.20;;;;;10.98;57.09;102772.13;2105042;27;46479;-62
2023/02/14 00:22:24;;;;;;;;;68.75;55.75;;;;;10.98;57.32;102772.13;2103941;27;45920;-63
2023/02/14 00:23:24;;;;;;;;;66.75;54.00;;;;;10.96;57.17;102772.13;2109370;27;46790;-61
2023/02/14 00:24:25;;;;;;;;;72.00;57.00;;;;;10.94;57.36;102759.72;2102938;27;45671;-62
2023/02/14 00:25:25;;;;;;;;;67.75;54.75;;;;;10.94;57.23;102762.34;2094799;28;46326;-62
2023/02/14 00:26:26;;;;;;;;;66.75;53.75;;;;;10.93;57.31;102758.81;2097068;28;46189;-63
2023/02/14 00:27:26;;;;;;;;;68.50;54.00;;;;;10.91;57.50;102761.44;2110425;27;46832;-62
2023/02/14 00:28:26;;;;;;;;;68.00;53.75;;;;;10.93;57.29;102764.13;2105482;27;45867;-61
2023/02/14 00:29:29;;;;;;;;;72.00;54.75;;;;;10.90;57.74;102759.66;2104507;27;46279;-62
2023/02/14 00:30:30;;;;;;;;;68.00;54.80;;;;;10.89;57.47;102760.53;2107325;27;46937;-64
2023/02/14 00:31:30;;;;;;;;;69.75;54.00;;;;;10.88;57.18;102760.53;2108584;27;46261;-61
2023/02/14 00:32:31;;;;;;;;;65.75;53.00;;;;;10.87;57.50;102759.63;2102952;28;46798;-61
2023/02/14 00:33:31;;;;;;;;;70.25;54.75;;;;;10.86;57.15;102760.50;2105600;27;45974;-62
2023/02/14 00:34:32;;;;;;;;;67.25;53.75;;;;;10.86;57.36;102762.28;2096408;28;46267;-61
2023/02/14 00:35:36;;;;;;;;;71.75;56.75;;;;;10.85;57.53;102761.38;2095315;28;46903;-61
2023/02/14 00:36:37;;;;;;;;;68.60;55.20;;;;;10.84;57.52;102761.38;2104917;27;47029;-61
2023/02/14 00:37:38;;;;;;;;;71.25;56.00;;;;;10.82;57.69;102756.06;2104579;27;46621;-63
2023/02/14 00:38:38;;;;;;;;;68.75;55.50;;;;;10.80;57.59;102763.13;2103631;27;46515;-62
2023/02/14 00:39:38;;;;;;;;;67.00;53.75;;;;;10.81;57.57;102761.34;2095018;28;46352;-61
2023/02/14 00:40:38;;;;;;;;;65.00;52.50;;;;;10.80;57.75;102762.22;2095235;28;45653;-61
2023/02/14 00:41:40;;;;;;;;;68.50;55.25;;;;;10.79;57.60;102763.06;2106161;27;47000;-62
2023/02/14 00:42:40;;;;;;;;;70.00;54.40;;;;;10.78;57.84;102763.94;2103149;27;46421;-63
2023/02/14 00:43:41;;;;;;;;;67.50;55.00;;;;;10.78;57.62;102755.97;2105155;27;46607;-60
2023/02/14 00:44:41;;;;;;;;;71.00;56.50;;;;;10.77;57.77;102757.75;2105750;27;45670;-61
2023/02/14 00:45:41;;;;;;;;;67.00;54.25;;;;;10.77;57.89;102754.22;2104114;27;46497;-61
2023/02/14 00:46:42;;;;;;;;;67.50;54.50;;;;;10.76;57.78;102749.78;2106822;27;46860;-62
2023/02/14 00:47:42;;;;;;;;;66.25;54.00;;;;;10.75;57.89;102748.88;2106818;27;46360;-62
2023/02/14 00:48:43;;;;;;;;;67.50;52.50;;;;;10.74;57.65;102755.06;2104471;27;46175;-61
2023/02/14 00:49:43;;;;;;;;;67.25;54.75;;;;;10.72;57.90;102753.28;2108066;27;46366;-63
2023/02/14 00:50:45;;;;;;;;;71.25;56.25;;;;;10.72;57.83;102754.16;2105411;27;46522;-61
2023/02/14 00:51:45;;;;;;;;;67.00;54.20;;;;;10.70;57.86;102750.63;2107111;27;45840;-62
2023/02/14 00:52:46;;;;;;;;;67.25;54.50;;;;;10.69;57.85;102740.88;2108314;27;46818;-62
2023/02/14 00:53:48;;;;;;;;;73.00;55.75;;;;;10.68;58.14;102740.88;2104947;27;46218;-61
2023/02/14 00:54:48;;;;;;;;;71.20;57.00;;;;;10.67;57.69;102745.28;2107706;27;46786;-62
2023/02/14 00:55:48;;;;;;;;;72.75;57.75;;;;;10.65;57.92;102743.47;2107517;27;46510;-61
2023/02/14 00:56:49;;;;;;;;;68.75;55.50;;;;;10.65;58.06;102741.69;2104712;27;46202;-63
2023/02/14 00:57:49;;;;;;;;;66.25;53.50;;;;;10.65;58.14;102740.81;2107637;27;46441;-60
2023/02/14 00:58:49;;;;;;;;;70.75;58.00;;;;;10.64;58.20;102739.91;2105013;27;45085;-62
2023/02/14 00:59:50;;;;;;;;;71.50;56.00;;;;;10.63;58.08;102738.13;2105076;27;46548;-62
2023/02/14 01:00:51;;;;;;;;;64.75;52.75;;;;;10.62;58.18;102731.03;2107204;27;46526;-62
2023/02/14 01:01:51;;;;;;;;;71.75;56.50;;;;;10.63;58.26;102737.25;2104666;27;46211;-63
2023/02/14 01:02:51;;;;;;;;;73.00;58.00;;;;;10.61;58.26;102730.16;2108710;27;46202;-61
2023/02/14 01:03:52;;;;;;;;;67.00;55.25;;;;;10.64;58.20;102731.06;2105417;27;46655;-62
2023/02/14 01:04:52;;;;;;;;;70.00;56.00;;;;;10.63;58.13;102732.81;2104560;27;46657;-61
2023/02/14 01:05:53;;;;;;;;;72.50;57.25;;;;;10.63;58.04;102729.28;2104659;27;46465;-61
2023/02/14 01:06:53;;;;;;;;;67.75;55.75;;;;;10.61;58.31;102735.47;2108845;27;47072;-61
2023/02/14 01:07:53;;;;;;;;;66.25;53.00;;;;;10.60;58.16;102732.81;2105094;27;45548;-62
2023/02/14 01:08:54;;;;;;;;;69.25;53.75;;;;;10.59;58.17;102731.91;2105368;27;46060;-61
2023/02/14 01:09:54;;;;;;;;;69.50;55.00;;;;;10.57;58.04;102733.66;2110236;27;46525;-61
2023/02/14 01:10:54;;;;;;;;;67.00;54.50;;;;;10.57;58.41;102735.44;2109784;27;46227;-62
2023/02/14 01:11:55;;;;;;;;;69.25;55.75;;;;;10.57;58.51;102733.66;2105939;27;46714;-61
2023/02/14 01:12:55;;;;;;;;;69.00;56.25;;;;;10.57;58.23;102732.78;2103053;28;46952;-62
2023/02/14 01:13:57;;;;;;;;;69.25;55.00;;;;;10.55;58.10;102731.88;2107828;27;46678;-61
2023/02/14 01:14:57;;;;;;;;;72.60;56.60;;;;;10.54;58.42;102735.38;2107307;27;46948;-64
2023/02/14 01:15:58;;;;;;;;;68.50;56.00;;;;;10.52;58.39;102734.47;2111741;27;46664;-62
2023/02/14 01:16:58;;;;;;;;;70.00;55.50;;;;;10.53;58.48;102730.94;2104473;27;46467;-63
2023/02/14 01:17:59;;;;;;;;;70.50;55.75;;;;;10.51;58.57;102728.28;2107656;27;46615;-63
2023/02/14 01:19:00;;;;;;;;;71.75;55.75;;;;;10.52;58.60;102740.66;2096325;28;46897;-63
2023/02/14 01:20:00;;;;;;;;;65.25;52.00;;;;;10.50;58.38;102729.16;2104985;27;46286;-63
2023/02/14 01:21:17;;;;;;;;;67.75;55.00;;;;;10.50;58.69;102725.59;2109752;27;46080;-64
2023/02/14 01:22:18;;;;;;;;;68.80;55.20;;;;;10.49;58.44;102731.78;2096391;28;46741;-63
2023/02/14 01:23:18;;;;;;;;;64.25;50.50;;;;;10.49;58.63;102726.47;2107151;27;46300;-62
2023/02/14 01:24:19;;;;;;;;;73.75;56.00;;;;;10.48;58.71;102733.56;2110385;27;46267;-63
2023/02/14 01:25:19;;;;;;;;;69.75;56.75;;;;;10.47;58.89;102730.88;2105942;27;46027;-63
2023/02/14 01:26:21;;;;;;;;;72.00;55.75;;;;;10.47;58.78;102733.53;2101004;27;45598;-63
2023/02/14 01:27:22;;;;;;;;;68.80;54.60;;;;;10.46;58.74;102729.13;2112105;27;46430;-62
2023/02/14 01:28:22;;;;;;;;;67.25;52.25;;;;;10.44;58.78;102729.09;2103851;27;46844;-62
2023/02/14 01:29:22;;;;;;;;;71.25;56.50;;;;;10.45;58.68;102730.00;2104390;27;46618;-62
2023/02/14 01:30:23;;;;;;;;;72.25;58.50;;;;;10.44;59.02;102734.41;2113098;27;46748;-64
2023/02/14 01:31:27;;;;;;;;;72.25;57.25;;;;;10.42;58.89;102740.59;2104937;27;46786;-63
2023/02/14 01:32:30;;;;;;;;;75.00;60.75;;;;;10.42;59.03;102738.81;2104395;27;46414;-63
2023/02/14 01:33:30;;;;;;;;;73.00;58.00;;;;;10.41;59.15;102729.03;2112398;27;46804;-62
2023/02/14 01:34:31;;;;;;;;;80.00;63.00;;;;;10.42;59.31;102732.63;2110397;27;46269;-62
2023/02/14 01:35:31;;;;;;;;;76.25;63.50;;;;;10.41;59.19;102736.13;2112247;27;46510;-61
2023/02/14 01:36:35;;;;;;;;;77.50;64.50;;;;;10.41;59.25;102731.69;2105173;27;46630;-63
2023/02/14 01:37:36;;;;;;;;;77.00;58.25;;;;;10.40;59.46;102729.91;2104547;27;46808;-62
2023/02/14 01:38:36;;;;;;;;;68.75;54.50;;;;;10.40;59.15;102737.88;2104774;28;46435;-62
2023/02/14 01:39:37;;;;;;;;;72.75;58.75;;;;;10.41;59.13;102741.44;2109919;27;46385;-63
2023/02/14 01:40:42;;;;;;;;;72.75;56.50;;;;;10.39;59.17;102741.41;2109700;27;45893;-63
2023/02/14 01:41:47;;;;;;;;;75.20;60.40;;;;;10.36;59.21;102736.06;2104853;27;46807;-61
2023/02/14 01:42:47;;;;;;;;;72.25;57.75;;;;;10.37;59.40;102736.97;2102204;27;47346;-63
2023/02/14 01:43:54;;;;;;;;;74.50;60.50;;;;;10.36;59.14;102733.41;2097391;28;46666;-62
2023/02/14 01:45:02;;;;;;;;;67.50;55.25;;;;;10.35;59.34;102736.94;2104277;27;46889;-63
2023/02/14 01:46:02;;;;;;;;;73.80;58.20;;;;;10.34;59.33;102732.53;2104853;27;46314;-62
2023/02/14 01:47:08;;;;;;;;;71.00;56.00;;;;;10.35;59.21;102733.41;2094688;28;46309;-61
2023/02/14 01:48:08;;;;;;;;;70.20;56.60;;;;;10.34;59.26;102739.59;2095117;28;46435;-63
2023/02/14 01:49:19;;;;;;;;;74.50;58.50;;;;;10.31;59.29;102730.72;2101657;27;46637;-63
2023/02/14 01:50:24;;;;;;;;;70.00;56.20;;;;;10.33;59.26;102733.41;2096774;27;46397;-62
2023/02/14 01:51:25;;;;;;;;;72.60;58.00;;;;;10.32;59.16;102736.91;2096237;27;46167;-61
2023/02/14 01:52:32;;;;;;;;;71.00;57.50;;;;;10.32;59.20;102732.50;2097994;27;47130;-62
2023/02/14 01:53:33;;;;;;;;;73.00;59.20;;;;;10.31;59.43;102730.72;2096929;27;45562;-63
2023/02/14 01:54:37;;;;;;;;;75.50;57.50;;;;;10.34;59.14;102739.59;2104932;27;46575;-63
2023/02/14 01:55:54;;;;;;;;;66.60;54.60;;;;;10.31;58.99;102733.38;2105333;27;45616;-63
2023/02/14 01:56:59;;;;;;;;;73.80;59.20;;;;;10.29;59.39;102731.56;2106121;27;46854;-63
2023/02/14 01:58:15;;;;;;;;;70.40;57.00;;;;;10.28;59.35;102729.78;2103877;28;45790;-62
2023/02/14 01:59:19;;;;;;;;;74.00;58.20;;;;;10.27;59.17;102734.19;2098582;27;46920;-63
2023/02/14 02:01:41;;;;;;;;;76.00;62.80;;;;;10.26;59.53;102729.75;2097974;27;46582;-64
2023/02/14 02:02:41;;;;;;;;;73.60;57.20;;;;;10.25;59.40;102732.41;2094443;28;46338;-64
2023/02/14 02:03:56;;;;;;;;;68.25;55.50;;;;;10.22;59.35;102737.69;2095661;28;46120;-62
2023/02/14 02:04:56;;;;;;;;;70.40;55.80;;;;;10.21;59.41;102731.47;2104927;27;46249;-64
2023/02/14 02:06:06;;;;;;;;;71.75;56.75;;;;;10.20;59.39;102734.97;2104152;27;46763;-63
2023/02/14 02:07:11;;;;;;;;;74.40;59.00;;;;;10.19;59.50;102735.84;2104654;27;46358;-62
2023/02/14 02:08:12;;;;;;;;;74.60;59.00;;;;;10.19;59.46;102738.50;2104692;27;46311;-62
2023/02/14 02:09:15;;;;;;;;;72.00;57.00;;;;;10.18;59.48;102722.56;2096541;27;46312;-63
2023/02/14 02:10:17;;;;;;;;;73.40;55.80;;;;;10.17;59.66;102727.00;2097740;27;46353;-62
2023/02/14 02:11:17;;;;;;;;;72.25;58.50;;;;;10.16;59.62;102727.84;2096573;27;46690;-64
2023/02/14 02:12:17;;;;;;;;;72.00;57.50;;;;;10.15;59.71;102723.41;2098216;27;46620;-63
2023/02/14 02:13:20;;;;;;;;;68.25;54.75;;;;;10.15;59.51;102723.41;2098301;27;46449;-63
2023/02/14 02:14:21;;;;;;;;;56.50;47.00;;;;;10.14;59.78;102728.69;2096417;28;46444;-62
2023/02/14 02:15:26;;;;;;;;;72.75;57.75;;;;;10.13;59.76;102722.50;2105127;27;46877;-63
2023/02/14 02:16:48;;;;;;;;;71.60;57.40;;;;;10.13;59.71;102729.56;2095512;28;46465;-64
2023/02/14 02:17:56;;;;;;;;;75.20;57.60;;;;;10.12;59.62;102726.03;2098716;27;46999;-62
2023/02/14 02:19:26;;;;;;;;;75.60;60.40;;;;;10.12;59.85;102727.78;2094553;28;46466;-63
2023/02/14 02:21:14;;;;;;;;;74.00;59.00;;;;;10.11;59.74;102728.66;2096656;27;46799;-63
2023/02/14 02:22:52;;;;;;;;;75.50;59.00;;;;;10.12;59.91;102731.34;2094034;28;46939;-63
2023/02/14 02:23:56;;;;;;;;;71.20;58.00;;;;;10.10;59.81;102725.13;2094656;28;46291;-62
2023/02/14 02:25:18;;;;;;;;;75.00;61.00;;;;;10.09;59.86;102723.34;2094413;28;46692;-62
2023/02/14 02:26:49;;;;;;;;;76.80;58.60;;;;;10.08;59.61;102726.88;2092376;28;46418;-64
2023/02/14 02:28:26;;;;;;;;;80.25;63.50;;;;;10.07;59.81;102730.41;2088081;28;46855;-62
2023/02/14 02:29:26;;;;;;;;;77.00;62.60;;;;;10.06;59.69;102731.28;2086436;28;46436;-63
2023/02/14 02:30:38;;;;;;;;;76.75;62.25;;;;;10.07;59.75;102729.50;2094733;28;46398;-62
2023/02/14 02:32:06;;;;;;;;;75.00;60.25;;;;;10.06;59.65;102727.72;2094904;28;46705;-62
2023/02/14 02:33:21;;;;;;;;;73.50;57.25;;;;;10.05;59.78;102733.91;2094062;28;46525;-63
2023/02/14 02:34:31;;;;;;;;;76.75;61.50;;;;;10.02;59.76;102730.31;2094432;28;46898;-62
2023/02/14 02:35:56;;;;;;;;;80.50;66.00;;;;;10.02;59.59;102735.63;2095271;28;46503;-62
2023/02/14 02:37:08;;;;;;;;;76.25;62.00;;;;;10.02;59.84;102732.06;2093590;28;46904;-62
2023/02/14 02:38:27;;;;;;;;;79.25;62.50;;;;;10.00;59.59;102726.75;2095085;28;46909;-61
2023/02/14 02:39:52;;;;;;;;;72.75;60.00;;;;;9.99;59.56;102727.63;2095179;28;46408;-60
2023/02/14 02:41:05;;;;;;;;;79.50;64.25;;;;;9.97;59.60;102726.72;2095675;28;46375;-61
2023/02/14 02:42:24;;;;;;;;;73.20;60.00;;;;;9.97;59.69;102731.13;2086868;28;46414;-61
2023/02/14 02:43:53;;;;;;;;;77.50;63.50;;;;;9.97;59.68;102731.13;2098709;28;45888;-60
2023/02/14 02:45:05;;;;;;;;;74.25;61.00;;;;;9.94;59.60;102729.34;2089571;28;46243;-61
2023/02/14 02:46:48;;;;;;;;;77.00;65.00;;;;;9.92;59.80;102722.25;2088004;28;46677;-63
2023/02/14 02:47:56;;;;;;;;;79.00;65.25;;;;;9.91;59.58;102728.38;2098778;28;46346;-61
2023/02/14 02:53:01;;;;;;;;;74.25;59.75;;;;;9.89;59.81;102725.72;2094627;28;46274;-62
2023/02/14 02:54:02;;;;;;;;;77.50;63.75;;;;;9.83;60.07;102717.69;2086424;28;46793;-62
2023/02/14 02:55:18;;;;;;;;;80.75;66.00;;;;;9.82;59.97;102712.38;2093948;28;46606;-62
2023/02/14 02:56:44;;;;;;;;;73.50;58.25;;;;;9.80;60.00;102712.38;2094943;28;46476;-61
2023/02/14 02:57:47;;;;;;;;;75.75;60.00;;;;;9.80;59.99;102712.38;2096707;28;46385;-63
2023/02/14 02:59:03;;;;;;;;;78.25;64.00;;;;;9.80;59.96;102714.13;2102884;28;46580;-63
2023/02/14 03:00:06;;;;;;;;;78.50;61.50;;;;;9.78;60.10;102710.53;2113930;27;46906;-61
2023/02/14 03:01:19;;;;;;;;;69.00;56.50;;;;;9.79;60.07;102715.00;2106594;27;46561;-60
2023/02/14 03:04:46;;;;;;;;;76.00;62.25;;;;;9.77;60.09;102704.34;2107173;27;46270;-63
2023/02/14 03:05:27;;;;;;;;;77.75;63.00;;;;;9.76;60.14;102712.28;2105310;27;45322;-63
2023/02/14 03:06:29;;;;;;;;;79.50;63.50;;;;;9.74;60.32;102704.31;2112166;27;46237;-62
2023/02/14 03:07:36;;;;;;;;;74.25;59.25;;;;;9.73;60.07;102711.38;2107689;27;46283;-64
2023/02/14 03:08:36;;;;;;;;;80.00;64.75;;;;;9.72;60.37;102706.94;2109898;27;46415;-61
2023/02/14 03:09:40;;;;;;;;;76.50;62.75;;;;;9.71;60.20;102709.59;2112007;27;46319;-61
2023/02/14 03:10:40;;;;;;;;;79.25;66.25;;;;;9.70;60.28;102706.03;2106641;27;46047;-62
2023/02/14 03:12:10;;;;;;;;;76.00;61.25;;;;;9.69;60.33;102703.38;2109911;27;46391;-61
2023/02/14 03:13:24;;;;;;;;;74.25;61.25;;;;;9.67;60.53;102706.00;2082206;28;46642;-61
2023/02/14 03:14:53;;;;;;;;;77.50;59.50;;;;;9.66;60.47;102698.03;2084225;28;47013;-62
2023/02/14 03:16:19;;;;;;;;;77.50;62.00;;;;;9.66;60.49;102700.69;2079726;28;46320;-60
2023/02/14 03:17:33;;;;;;;;;73.25;58.75;;;;;9.62;60.73;102702.38;2082696;28;46923;-62
2023/02/14 03:18:53;;;;;;;;;81.25;64.50;;;;;9.62;60.54;102702.38;2087429;28;46793;-62
2023/02/14 03:20:19;;;;;;;;;78.25;66.25;;;;;9.60;60.75;102701.47;2087329;28;46894;-61
2023/02/14 03:21:30;;;;;;;;;76.50;62.25;;;;;9.60;60.76;102704.13;2087746;28;46983;-63
2023/02/14 03:22:51;;;;;;;;;76.00;59.50;;;;;9.60;60.69;102709.44;2087701;28;46424;-64
2023/02/14 03:24:23;;;;;;;;;76.00;60.00;;;;;9.59;60.56;102710.31;2087380;28;46678;-61
2023/02/14 03:25:42;;;;;;;;;77.75;61.75;;;;;9.58;60.64;102710.28;2087788;28;46916;-62
2023/02/14 03:26:54;;;;;;;;;77.50;66.50;;;;;9.57;60.49;102703.19;2087259;28;46283;-62
2023/02/14 03:28:12;;;;;;;;;80.25;68.00;;;;;9.56;60.15;102706.72;2087803;28;46971;-62
2023/02/14 03:29:19;;;;;;;;;79.50;63.50;;;;;9.56;60.33;102704.06;2079567;28;45723;-63
2023/02/14 03:31:15;;;;;;;;;81.00;67.00;;;;;9.56;60.35;102709.38;2080499;28;46855;-63
2023/02/14 03:32:36;;;;;;;;;77.50;64.50;;;;;9.55;60.54;102708.47;2046745;28;47172;-62
2023/02/14 03:33:39;;;;;;;;;81.00;66.25;;;;;9.56;60.34;102704.06;2047038;28;46187;-62
2023/02/14 03:35:05;;;;;;;;;79.25;62.25;;;;;9.55;60.19;102704.94;2046742;28;46763;-63
2023/02/14 03:36:13;;;;;;;;;80.25;65.00;;;;;9.55;60.22;102702.28;2031004;29;46875;-61
2023/02/14 03:37:20;;;;;;;;;79.50;68.25;;;;;9.53;60.21;102704.94;2031142;29;46448;-61
2023/02/14 03:38:26;;;;;;;;;82.50;68.50;;;;;9.53;60.30;102698.69;2030671;29;47089;-62
2023/02/14 03:39:37;;;;;;;;;77.25;62.00;;;;;9.50;60.27;102702.22;2030530;29;46625;-62
2023/02/14 03:40:58;;;;;;;;;78.25;67.75;;;;;9.51;60.52;102703.97;2030963;29;46498;-63
2023/02/14 03:42:06;;;;;;;;;75.50;59.00;;;;;9.51;60.27;102703.09;2031088;29;45947;-62
2023/02/14 03:43:11;;;;;;;;;80.50;65.50;;;;;9.51;60.32;102703.09;2030509;29;46436;-61
2023/02/14 03:44:17;;;;;;;;;80.75;66.00;;;;;9.52;60.26;102710.19;2030459;29;46551;-61
2023/02/14 03:45:30;;;;;;;;;75.25;59.75;;;;;9.50;60.21;102699.56;2030731;29;46556;-62
2023/02/14 03:46:54;;;;;;;;;79.00;66.50;;;;;9.50;60.07;102703.97;2030895;29;46625;-64
2023/02/14 03:48:00;;;;;;;;;82.00;68.75;;;;;9.48;60.18;102703.94;2014901;29;46908;-61
2023/02/14 03:49:06;;;;;;;;;78.00;64.25;;;;;9.48;60.11;102708.34;2014411;29;46954;-62
2023/02/14 03:50:15;;;;;;;;;81.00;70.25;;;;;9.47;60.34;102703.94;2016249;29;45161;-61
2023/02/14 03:51:19;;;;;;;;;81.75;67.50;;;;;9.47;60.18;102706.59;2015184;29;46717;-62
2023/02/14 03:52:21;;;;;;;;;81.00;69.50;;;;;9.47;60.14;102709.22;2014586;29;46391;-62
2023/02/14 03:53:27;;;;;;;;;81.00;71.00;;;;;9.47;60.13;102714.53;2014698;29;46908;-62
2023/02/14 03:54:29;;;;;;;;;84.50;72.50;;;;;9.47;60.11;102706.59;2014958;29;47003;-62
2023/02/14 03:55:37;;;;;;;;;79.25;63.25;;;;;9.47;60.02;102706.59;2014659;29;47241;-63
2023/02/14 03:56:44;;;;;;;;;81.00;68.75;;;;;9.46;59.88;102705.69;2014473;29;46825;-62
2023/02/14 03:57:54;;;;;;;;;80.00;66.50;;;;;9.47;59.90;102709.22;2014599;29;46664;-62
2023/02/14 03:58:59;;;;;;;;;81.50;70.25;;;;;9.44;60.04;102704.78;2014775;29;46432;-63
2023/02/14 04:00:00;;;;;;;;;80.75;65.75;;;;;9.43;59.87;102708.31;2014584;29;46307;-61
2023/02/14 04:01:22;;;;;;;;;80.50;68.25;;;;;9.41;60.04;102707.41;2014961;29;46217;-61
2023/02/14 04:02:43;;;;;;;;;79.75;65.00;;;;;9.41;59.91;102705.63;2015260;29;46873;-61
2023/02/14 04:03:45;;;;;;;;;81.75;67.50;;;;;9.41;60.00;102708.28;2014890;29;46890;-61
2023/02/14 04:04:48;;;;;;;;;74.75;62.00;;;;;9.40;59.81;102709.16;2014979;29;46513;-61
2023/02/14 04:05:51;;;;;;;;;75.00;61.00;;;;;9.40;59.83;102710.88;2012813;29;47016;-62
2023/02/14 04:06:51;;;;;;;;;80.00;69.00;;;;;9.37;59.43;102710.84;2014989;29;46251;-60
2023/02/14 04:07:57;;;;;;;;;83.75;70.75;;;;;9.35;60.02;102707.28;2017352;29;46724;-64
2023/02/14 04:08:57;;;;;;;;;80.25;66.75;;;;;9.34;59.81;102708.16;2030653;29;46545;-61
2023/02/14 04:09:57;;;;;;;;;81.50;67.75;;;;;9.33;60.00;102707.25;2041567;28;46711;-62
2023/02/14 04:11:00;;;;;;;;;73.75;57.50;;;;;9.32;59.95;102702.84;2054096;28;46179;-63
2023/02/14 04:12:00;;;;;;;;;78.00;65.75;;;;;9.33;59.92;102709.03;2054904;28;46777;-64
2023/02/14 04:13:01;;;;;;;;;81.50;67.50;;;;;9.33;59.98;102711.69;2054415;28;46630;-63
2023/02/14 04:14:01;;;;;;;;;80.50;66.50;;;;;9.33;59.89;102712.56;2076504;28;45557;-61
2023/02/14 04:15:02;;;;;;;;;81.00;68.25;;;;;9.33;59.94;102704.63;2084190;28;46518;-62
2023/02/14 04:16:03;;;;;;;;;81.75;71.00;;;;;9.33;60.07;102715.22;2083935;28;45810;-60
2023/02/14 04:19:43;;;;;;;;;82.00;71.50;;;;;9.33;60.03;102714.31;2083073;28;46746;-61
2023/02/14 04:20:43;;;;;;;;;81.75;69.75;;;;;9.32;59.77;102713.44;2085220;28;45942;-61
2023/02/14 04:21:43;;;;;;;;;79.25;62.75;;;;;9.32;59.80;102715.19;2086470;28;45473;-62
2023/02/14 04:22:45;;;;;;;;;77.50;63.25;;;;;9.31;60.00;102710.78;2087471;28;46712;-61
2023/02/14 04:23:45;;;;;;;;;81.50;69.50;;;;;9.31;59.82;102709.00;2086251;28;46308;-63
2023/02/14 04:24:45;;;;;;;;;79.25;66.75;;;;;9.30;59.98;102712.53;2069659;28;45581;-63
2023/02/14 04:25:46;;;;;;;;;78.75;68.25;;;;;9.29;59.89;102712.50;2085936;28;47273;-62
2023/02/14 04:28:05;;;;;;;;;76.00;63.25;;;;;9.27;59.85;102714.22;2103199;28;46927;-61
2023/02/14 04:29:06;;;;;;;;;80.50;66.75;;;;;9.26;60.07;102713.31;2105222;28;46034;-62
2023/02/14 04:30:07;;;;;;;;;77.75;63.25;;;;;9.25;60.13;102711.53;2104446;28;46291;-61
2023/02/14 04:31:09;;;;;;;;;78.00;66.50;;;;;9.24;60.23;102708.88;2104496;27;46397;-62
2023/02/14 04:32:12;;;;;;;;;78.50;67.25;;;;;9.23;59.94;102715.03;2112455;27;46100;-62
2023/02/14 04:33:12;;;;;;;;;81.00;69.50;;;;;9.22;60.13;102722.09;2100076;28;46554;-62
2023/02/14 04:34:13;;;;;;;;;67.50;55.25;;;;;9.21;60.14;102719.44;2103924;28;46250;-63
2023/02/14 04:35:14;;;;;;;;;78.25;59.00;;;;;9.20;60.17;102717.66;2104759;28;46226;-63
2023/02/14 04:36:14;;;;;;;;;78.00;62.00;;;;;9.20;60.11;102720.31;2098892;28;46295;-63
2023/02/14 04:37:17;;;;;;;;;82.00;67.50;;;;;9.18;59.99;102720.28;2102573;28;46502;-62
2023/02/14 04:38:18;;;;;;;;;72.75;58.25;;;;;9.18;60.33;102714.97;2103718;28;46245;-61
2023/02/14 04:39:18;;;;;;;;;78.50;65.00;;;;;9.19;60.30;102713.22;2096618;28;46226;-62
2023/02/14 04:40:18;;;;;;;;;80.75;68.75;;;;;9.18;60.14;102720.28;2096851;28;46719;-61
2023/02/14 04:41:19;;;;;;;;;81.75;67.00;;;;;9.18;59.96;102717.63;2096533;28;46426;-62
2023/02/14 04:42:19;;;;;;;;;82.25;69.50;;;;;9.17;60.13;102709.66;2103456;28;46684;-61
2023/02/14 04:43:19;;;;;;;;;80.00;66.00;;;;;9.18;60.25;102709.69;2103849;27;46499;-61
2023/02/14 04:44:20;;;;;;;;;80.75;68.50;;;;;9.19;60.34;102716.75;2105022;27;46778;-61
2023/02/14 04:45:20;;;;;;;;;78.75;66.25;;;;;9.17;60.17;102712.31;2104882;28;46364;-61
2023/02/14 04:46:21;;;;;;;;;80.25;67.50;;;;;9.18;60.22;102714.97;2104843;27;46366;-62
2023/02/14 04:47:21;;;;;;;;;76.00;61.75;;;;;9.19;60.32;102715.88;2104689;28;46264;-62
2023/02/14 04:48:21;;;;;;;;;75.75;62.00;;;;;9.17;60.33;102701.72;2105111;28;46195;-61
2023/02/14 04:49:22;;;;;;;;;83.75;72.00;;;;;9.18;60.34;102703.50;2104975;28;46820;-62
2023/02/14 04:50:24;;;;;;;;;84.25;73.25;;;;;9.16;60.46;102700.81;2104725;28;46700;-61
2023/02/14 04:51:25;;;;;;;;;89.00;82.00;;;;;9.18;60.55;102708.78;2104866;28;46495;-61
2023/02/14 04:52:25;;;;;;;;;91.00;86.33;;;;;9.17;60.45;102702.59;2102093;28;46276;-61
2023/02/14 04:53:26;;;;;;;;;81.00;69.50;;;;;9.18;60.73;102704.38;2096882;28;46507;-62
2023/02/14 04:54:27;;;;;;;;;81.75;69.00;;;;;9.18;60.37;102711.44;2104871;27;46242;-62
2023/02/14 04:55:27;;;;;;;;;80.00;67.75;;;;;9.17;60.62;102701.72;2104929;28;46600;-62
2023/02/14 04:56:28;;;;;;;;;80.25;67.50;;;;;9.16;60.35;102700.81;2104685;28;45846;-62
2023/02/14 04:57:28;;;;;;;;;81.00;67.50;;;;;9.16;60.55;102710.53;2104617;28;46376;-62
2023/02/14 04:58:28;;;;;;;;;79.25;66.50;;;;;9.15;60.58;102709.66;2105095;27;46088;-60
2023/02/14 04:59:29;;;;;;;;;80.25;68.00;;;;;9.14;60.60;102716.66;2097616;28;46643;-62
2023/02/14 05:00:29;;;;;;;;;82.25;64.75;;;;;9.13;60.56;102712.25;2100285;28;46375;-62
2023/02/14 05:01:29;;;;;;;;;78.25;61.75;;;;;9.12;60.74;102713.09;2097435;28;46331;-62
2023/02/14 05:02:30;;;;;;;;;78.75;68.75;;;;;9.12;60.77;102712.22;2103407;28;46469;-62
2023/02/14 05:03:30;;;;;;;;;78.50;63.50;;;;;9.12;60.87;102712.22;2104824;28;46464;-62
2023/02/14 05:04:30;;;;;;;;;76.25;60.00;;;;;9.12;60.77;102715.75;2095315;28;45457;-61
2023/02/14 05:05:31;;;;;;;;;73.75;58.00;;;;;9.14;60.68;102716.66;2094922;28;46202;-62
2023/02/14 05:06:31;;;;;;;;;78.25;64.25;;;;;9.15;60.80;102725.53;2105831;27;46150;-62
2023/02/14 05:07:32;;;;;;;;;75.50;59.00;;;;;9.14;60.85;102716.66;2098028;27;45514;-62
2023/02/14 05:08:32;;;;;;;;;79.25;67.50;;;;;9.14;60.47;102715.78;2101242;27;46438;-62
2023/02/14 05:09:32;;;;;;;;;74.25;57.75;;;;;9.14;60.76;102721.97;2097117;27;46135;-62
2023/02/14 05:10:33;;;;;;;;;78.25;64.25;;;;;9.14;60.81;102718.44;2099990;27;46884;-62
2023/02/14 05:11:33;;;;;;;;;76.50;59.75;;;;;9.12;60.80;102722.81;2101110;27;45128;-61